Time;durP1;ratioP1;P1;durP2;ratioP2;P2;SDS_P1;SDS_P2;PMS_P1;PMS_P2;Temp;Humidity;BMP_temperature;BMP_pressure;BME280_temperature;BME280_humidity;BME280_pressure;Samples;Min_cycle;Max_cycle;Signal;HPM_P1;HPM_P2
2022/01/09 00:02:24;;;;;;;25.02;11.20;;;51.90;2227.20;;;;;;5050710;28;20104;-61
2022/01/09 00:04:50;;;;;;;25.65;12.45;;;51.90;2227.20;;;;;;5050888;28;20548;-60
2022/01/09 00:07:16;;;;;;;25.10;12.80;;;51.80;2227.20;;;;;;5050643;28;20028;-60
2022/01/09 00:09:44;;;;;;;24.00;12.60;;;51.80;2227.20;;;;;;5050526;28;20029;-60
2022/01/09 00:12:13;;;;;;;27.35;13.02;;;51.80;2227.20;;;;;;5050564;28;20383;-58
2022/01/09 00:14:39;;;;;;;40.30;16.92;;;52.00;2227.20;;;;;;5050200;28;20103;-59
2022/01/09 00:17:05;;;;;;;26.85;12.65;;;51.90;2227.20;;;;;;5050295;28;20107;-59
2022/01/09 00:19:31;;;;;;;21.30;11.77;;;51.90;2227.20;;;;;;5050460;28;20378;-59
2022/01/09 00:21:57;;;;;;;21.38;10.63;;;52.10;2227.20;;;;;;5050223;28;20103;-59
2022/01/09 00:24:23;;;;;;;26.98;11.73;;;51.90;2227.20;;;;;;5050285;28;20075;-59
2022/01/09 00:26:49;;;;;;;23.40;12.80;;;51.90;2227.20;;;;;;5050648;28;20061;-59
2022/01/09 00:29:14;;;;;;;31.63;14.43;;;76.80;2227.20;;;;;;5050222;28;20104;-59
2022/01/09 00:31:40;;;;;;;24.95;12.90;;;52.10;2227.20;;;;;;5050113;28;20048;-59
2022/01/09 00:34:06;;;;;;;27.15;12.68;;;52.00;2227.20;;;;;;5050167;28;20028;-59
2022/01/09 00:36:32;;;;;;;30.23;12.80;;;52.10;2227.20;;;;;;5050049;28;20037;-59
2022/01/09 00:38:58;;;;;;;26.52;11.40;;;76.80;2227.20;;;;;;5050164;28;20017;-59
2022/01/09 00:41:24;;;;;;;29.05;12.82;;;52.10;2227.20;;;;;;5050033;28;20171;-61
2022/01/09 00:43:50;;;;;;;26.00;12.40;;;76.90;2227.20;;;;;;5050511;28;20491;-60
2022/01/09 00:46:17;;;;;;;23.15;12.05;;;52.10;2227.20;;;;;;5048900;28;20040;-59
2022/01/09 00:48:43;;;;;;;27.50;12.45;;;52.00;2227.20;;;;;;5050242;28;20032;-59
2022/01/09 00:51:08;;;;;;;25.88;14.93;;;52.10;2227.20;;;;;;5050231;28;20033;-59
2022/01/09 00:53:34;;;;;;;198.50;67.28;;;76.90;2227.20;;;;;;5049799;28;20021;-59
2022/01/09 00:56:00;;;;;;;37.97;15.90;;;52.10;2227.20;;;;;;5049959;28;20033;-59
2022/01/09 00:58:26;;;;;;;77.13;36.58;;;52.10;2227.20;;;;;;5049591;28;20349;-59
2022/01/09 01:00:53;;;;;;;119.97;51.92;;;52.10;2227.20;;;;;;5050010;28;20112;-58
2022/01/09 01:03:19;;;;;;;144.10;62.13;;;76.80;2227.20;;;;;;5050453;28;20648;-59
2022/01/09 01:05:45;;;;;;;39.15;20.52;;;76.80;2227.20;;;;;;5054091;28;20074;-59
2022/01/09 01:08:11;;;;;;;289.15;130.82;;;52.10;2227.20;;;;;;5053886;28;20025;-58
2022/01/09 01:10:36;;;;;;;46.92;19.65;;;52.10;2227.20;;;;;;5053699;28;20104;-59
2022/01/09 01:13:02;;;;;;;149.18;56.83;;;52.00;2227.20;;;;;;5054141;28;20090;-59
2022/01/09 01:15:29;;;;;;;153.65;65.95;;;52.10;2227.20;;;;;;5053739;28;20487;-59
2022/01/09 01:17:54;;;;;;;242.20;103.05;;;76.80;2227.20;;;;;;5053526;28;20024;-59
2022/01/09 01:20:22;;;;;;;42.55;20.38;;;76.90;2227.20;;;;;;5053675;28;20375;-59
2022/01/09 01:22:50;;;;;;;57.90;30.75;;;76.80;2227.20;;;;;;5053582;28;20024;-58
2022/01/09 01:25:18;;;;;;;66.45;35.33;;;76.80;2227.20;;;;;;5053477;28;20048;-59
2022/01/09 01:27:44;;;;;;;32.00;15.38;;;76.90;2227.20;;;;;;5053922;28;20029;-58
2022/01/09 01:30:10;;;;;;;27.88;13.48;;;52.00;2227.20;;;;;;5053524;28;20055;-59
2022/01/09 01:32:37;;;;;;;31.45;18.30;;;76.80;2227.20;;;;;;5053326;28;20056;-59
2022/01/09 01:35:03;;;;;;;27.67;14.98;;;76.80;2227.20;;;;;;5053425;28;20029;-58
2022/01/09 01:37:28;;;;;;;32.45;18.27;;;52.10;2227.20;;;;;;5051880;28;20131;-59
2022/01/09 01:39:54;;;;;;;532.20;300.95;;;52.00;2227.20;;;;;;5053133;28;20112;-59
2022/01/09 01:42:20;;;;;;;63.25;31.00;;;52.10;2227.20;;;;;;5053301;28;20067;-59
2022/01/09 01:44:48;;;;;;;105.97;51.80;;;52.10;2227.20;;;;;;5053362;28;20021;-59
2022/01/09 01:47:17;;;;;;;291.27;149.65;;;76.80;2227.20;;;;;;5053098;28;20108;-60
2022/01/09 01:49:43;;;;;;;123.10;60.17;;;52.10;2227.20;;;;;;5053427;28;20025;-59
2022/01/09 01:52:09;;;;;;;39.47;23.17;;;51.90;2227.20;;;;;;5052876;28;20074;-59
2022/01/09 01:54:35;;;;;;;110.82;61.38;;;52.10;2227.20;;;;;;5052988;28;20057;-60
2022/01/09 01:57:03;;;;;;;170.52;98.57;;;52.10;2227.20;;;;;;5052894;28;20060;-59
2022/01/09 01:59:29;;;;;;;137.10;67.95;;;76.80;2227.20;;;;;;5052668;28;20103;-59
2022/01/09 02:01:54;;;;;;;147.25;79.97;;;76.90;2227.20;;;;;;5052773;28;20060;-60
2022/01/09 02:04:20;;;;;;;84.68;54.67;;;76.90;2227.20;;;;;;5052838;28;20052;-60
2022/01/09 02:06:46;;;;;;;76.68;45.63;;;76.80;2227.20;;;;;;5052841;28;20104;-59
2022/01/09 02:09:12;;;;;;;40.22;22.50;;;76.90;2227.20;;;;;;5052975;28;20024;-59
2022/01/09 02:11:38;;;;;;;44.55;22.67;;;77.00;2227.20;;;;;;5052598;28;20483;-59
2022/01/09 02:14:04;;;;;;;42.22;21.13;;;77.00;2227.20;;;;;;5052464;28;20025;-58
2022/01/09 02:16:29;;;;;;;38.72;20.52;;;77.00;2227.20;;;;;;5052684;28;20028;-59
2022/01/09 02:18:58;;;;;;;39.70;20.42;;;77.00;2227.20;;;;;;5052338;28;20078;-60
2022/01/09 02:21:26;;;;;;;41.22;19.65;;;76.90;2227.20;;;;;;5052497;28;20040;-59
2022/01/09 02:23:51;;;;;;;43.20;22.33;;;52.10;2227.20;;;;;;5052512;28;20021;-59
2022/01/09 02:26:19;;;;;;;44.80;23.58;;;52.00;2227.20;;;;;;5052351;28;20024;-59
2022/01/09 02:28:46;;;;;;;44.03;23.52;;;52.10;2227.20;;;;;;5052463;28;20051;-59
2022/01/09 02:31:13;;;;;;;40.15;20.67;;;52.10;2227.20;;;;;;5052104;28;20059;-59
2022/01/09 02:33:39;;;;;;;47.17;22.35;;;76.90;2227.20;;;;;;5052057;28;20040;-58
2022/01/09 02:36:04;;;;;;;40.33;21.23;;;76.90;2227.20;;;;;;5051929;28;20563;-59
2022/01/09 02:38:30;;;;;;;52.30;23.17;;;77.00;2227.20;;;;;;5052316;28;20017;-58
2022/01/09 02:40:56;;;;;;;43.78;23.17;;;77.00;2227.20;;;;;;5051931;28;20029;-59
2022/01/09 02:43:23;;;;;;;49.53;26.40;;;77.10;2227.20;;;;;;5052151;28;20463;-59
2022/01/09 02:45:57;;;;;;;60.10;31.85;;;77.10;2227.20;;;;;;5051952;28;20031;-59
2022/01/09 02:48:23;;;;;;;73.40;38.75;;;77.00;2227.20;;;;;;5052113;28;20017;-60
2022/01/09 02:51:02;;;;;;;78.78;38.22;;;77.00;2227.20;;;;;;5051901;28;20037;-59
2022/01/09 02:53:33;;;;;;;73.57;41.33;;;76.90;2227.20;;;;;;5051610;28;20542;-59
2022/01/09 02:55:59;;;;;;;99.70;52.00;;;77.00;2227.20;;;;;;5051811;28;20376;-59
2022/01/09 02:58:24;;;;;;;78.88;42.47;;;52.10;2227.20;;;;;;5051560;28;20032;-59
2022/01/09 03:00:50;;;;;;;55.50;32.42;;;76.90;2227.20;;;;;;5051806;28;20025;-58
2022/01/09 03:03:16;;;;;;;56.15;32.97;;;76.90;2227.20;;;;;;5051265;28;20044;-60
2022/01/09 03:05:41;;;;;;;64.43;34.78;;;52.10;2227.20;;;;;;5040979;28;20490;-59
2022/01/09 03:08:08;;;;;;;57.38;30.45;;;52.10;2227.20;;;;;;5041984;28;20021;-59
2022/01/09 03:10:34;;;;;;;38.42;21.75;;;76.80;2227.20;;;;;;5040379;28;20392;-58
2022/01/09 03:13:00;;;;;;;57.28;32.78;;;76.80;2227.20;;;;;;5040956;28;20031;-58
2022/01/09 03:15:27;;;;;;;52.83;27.05;;;76.80;2227.20;;;;;;5041786;28;20036;-60
2022/01/09 03:17:53;;;;;;;71.05;36.88;;;77.00;2227.20;;;;;;5040234;28;20123;-59
2022/01/09 03:20:21;;;;;;;63.00;31.83;;;77.00;2227.20;;;;;;5040977;28;20025;-59
2022/01/09 03:22:48;;;;;;;44.22;23.08;;;77.00;2227.20;;;;;;5042278;28;20086;-58
2022/01/09 03:25:15;;;;;;;44.60;23.30;;;77.00;2227.20;;;;;;5040227;28;20060;-59
2022/01/09 03:27:42;;;;;;;35.33;21.42;;;76.90;2227.20;;;;;;5040207;28;20052;-59
2022/01/09 03:30:09;;;;;;;39.92;21.90;;;77.00;2227.20;;;;;;5041382;28;20021;-59
2022/01/09 03:32:36;;;;;;;48.20;26.17;;;77.00;2227.20;;;;;;5040115;28;20263;-59
2022/01/09 03:35:04;;;;;;;43.08;23.88;;;77.00;2227.20;;;;;;5040234;28;20029;-57
2022/01/09 03:37:30;;;;;;;36.88;18.80;;;77.00;2227.20;;;;;;5041492;28;20451;-56
2022/01/09 03:39:55;;;;;;;49.17;23.10;;;77.00;2227.20;;;;;;5031117;28;20064;-58
2022/01/09 03:42:21;;;;;;;43.08;20.85;;;77.10;2227.20;;;;;;5031357;28;20411;-60
2022/01/09 03:44:47;;;;;;;63.63;36.10;;;77.00;2227.20;;;;;;5030915;28;20040;-61
2022/01/09 03:47:12;;;;;;;52.42;26.75;;;77.00;2227.20;;;;;;5031029;28;20437;-60
2022/01/09 03:49:38;;;;;;;56.65;26.65;;;77.00;2227.20;;;;;;5030753;28;20040;-60
2022/01/09 03:52:04;;;;;;;48.80;25.17;;;77.00;2227.20;;;;;;5031120;28;20033;-59
2022/01/09 03:54:30;;;;;;;46.17;22.00;;;76.90;2227.20;;;;;;5030880;28;20025;-59
2022/01/09 03:56:56;;;;;;;51.17;27.95;;;77.00;2227.20;;;;;;5030862;28;20161;-59
2022/01/09 03:59:22;;;;;;;41.47;24.35;;;77.00;2227.20;;;;;;5031151;28;20033;-59
2022/01/09 04:01:48;;;;;;;44.10;21.40;;;77.00;2227.20;;;;;;5030701;28;20430;-58
2022/01/09 04:04:14;;;;;;;47.03;22.30;;;77.00;2227.20;;;;;;5030634;28;20046;-59
2022/01/09 04:06:45;;;;;;;63.85;31.73;;;77.00;2227.20;;;;;;5030663;28;20038;-60
2022/01/09 04:09:18;;;;;;;58.65;32.28;;;77.00;2227.20;;;;;;5030682;28;20021;-59
2022/01/09 04:11:45;;;;;;;48.78;25.05;;;76.90;2227.20;;;;;;5030739;28;20040;-59
2022/01/09 04:14:12;;;;;;;57.65;31.70;;;76.90;2227.20;;;;;;5030566;28;20029;-61
2022/01/09 04:16:37;;;;;;;58.17;32.13;;;77.00;2227.20;;;;;;5030272;28;20038;-59
2022/01/09 04:19:03;;;;;;;60.95;32.65;;;76.90;2227.20;;;;;;5030467;28;20041;-60
2022/01/09 04:21:29;;;;;;;61.53;33.22;;;76.80;2227.20;;;;;;5030344;28;20112;-60
2022/01/09 04:23:55;;;;;;;45.33;26.75;;;76.90;2227.20;;;;;;5030216;28;20030;-59
2022/01/09 04:26:21;;;;;;;50.50;26.35;;;76.90;2227.20;;;;;;5030587;28;20025;-59
2022/01/09 04:28:47;;;;;;;44.55;23.95;;;76.80;2227.20;;;;;;5030553;28;20405;-59
2022/01/09 04:31:15;;;;;;;46.15;25.67;;;52.00;2227.20;;;;;;5030290;28;20034;-60
2022/01/09 04:33:42;;;;;;;47.90;25.58;;;76.90;2227.20;;;;;;5030356;28;20025;-59
2022/01/09 04:36:08;;;;;;;42.72;23.10;;;76.80;2227.20;;;;;;5029989;28;20076;-59
2022/01/09 04:38:33;;;;;;;46.55;22.90;;;76.90;2227.20;;;;;;5030296;28;20058;-58
2022/01/09 04:40:59;;;;;;;54.78;25.92;;;76.80;2227.20;;;;;;5030041;28;20427;-58
2022/01/09 04:43:27;;;;;;;51.30;23.55;;;76.80;2227.20;;;;;;5030222;28;20017;-58
2022/01/09 04:45:52;;;;;;;48.30;25.02;;;76.80;2227.20;;;;;;5030261;28;20100;-59
2022/01/09 04:48:18;;;;;;;43.92;23.75;;;76.90;2227.20;;;;;;5030114;28;20550;-58
2022/01/09 04:50:45;;;;;;;54.42;27.13;;;76.80;2227.20;;;;;;5030113;28;20108;-59
2022/01/09 04:53:11;;;;;;;69.38;35.80;;;76.80;2227.20;;;;;;5030117;28;20125;-59
2022/01/09 04:55:41;;;;;;;62.50;35.20;;;77.00;2227.20;;;;;;5029769;28;20527;-59
2022/01/09 04:58:07;;;;;;;59.15;30.70;;;77.00;2227.20;;;;;;5029945;28;20021;-58
2022/01/09 05:00:33;;;;;;;82.22;40.72;;;76.90;2227.20;;;;;;5030070;28;20034;-59
2022/01/09 05:02:59;;;;;;;67.28;34.97;;;76.80;2227.20;;;;;;5029977;28;20414;-58
2022/01/09 05:05:25;;;;;;;62.58;32.33;;;76.90;2227.20;;;;;;5029927;28;20030;-59
2022/01/09 05:07:51;;;;;;;68.20;36.70;;;76.80;2227.20;;;;;;5030049;28;20021;-59
2022/01/09 05:10:16;;;;;;;87.38;44.35;;;52.10;2227.20;;;;;;5030180;28;20549;-58
2022/01/09 05:12:42;;;;;;;79.10;42.65;;;52.10;2227.20;;;;;;5030041;28;20361;-60
2022/01/09 05:15:09;;;;;;;63.03;35.05;;;76.80;2227.20;;;;;;5029524;28;20517;-59
2022/01/09 05:17:35;;;;;;;67.05;35.03;;;76.90;2227.20;;;;;;5029722;28;20064;-58
2022/01/09 05:20:03;;;;;;;60.63;32.88;;;77.00;2227.20;;;;;;5029810;28;20036;-58
2022/01/09 05:22:29;;;;;;;64.50;35.35;;;77.00;2227.20;;;;;;5029613;28;20047;-59
2022/01/09 05:24:58;;;;;;;67.00;36.92;;;76.80;2227.20;;;;;;5029683;28;20497;-58
2022/01/09 05:27:24;;;;;;;69.30;35.72;;;76.80;2227.20;;;;;;5029955;28;20021;-60
2022/01/09 05:29:50;;;;;;;68.93;38.05;;;52.00;2227.20;;;;;;5029823;28;20030;-59
2022/01/09 05:32:16;;;;;;;71.47;37.35;;;52.00;2227.20;;;;;;5029517;28;20033;-59
2022/01/09 05:34:41;;;;;;;65.53;34.25;;;52.00;2227.20;;;;;;5029763;28;20121;-58
2022/01/09 05:37:07;;;;;;;61.10;32.17;;;52.10;2227.20;;;;;;5029499;28;20088;-58
2022/01/09 05:39:34;;;;;;;53.15;30.27;;;51.90;2227.20;;;;;;5029763;28;20424;-58
2022/01/09 05:42:03;;;;;;;61.53;33.67;;;51.70;2227.20;;;;;;5029915;28;20029;-58
2022/01/09 05:44:28;;;;;;;78.65;44.03;;;51.80;2227.20;;;;;;5029588;28;20036;-58
2022/01/09 05:46:54;;;;;;;91.15;56.20;;;51.80;2227.20;;;;;;5029634;28;20021;-59
2022/01/09 05:49:20;;;;;;;88.28;53.90;;;51.80;2227.20;;;;;;5030343;28;20426;-59
2022/01/09 05:51:46;;;;;;;83.43;50.25;;;51.60;2227.20;;;;;;5033276;28;20487;-59
2022/01/09 05:54:11;;;;;;;86.85;47.30;;;51.60;2227.20;;;;;;5033160;28;20029;-59
2022/01/09 05:56:37;;;;;;;71.88;42.38;;;51.60;2227.20;;;;;;5032820;28;20079;-59
2022/01/09 05:59:03;;;;;;;64.70;36.80;;;51.50;2227.20;;;;;;5033003;28;20017;-58
2022/01/09 06:01:29;;;;;;;63.13;34.20;;;51.30;2227.20;;;;;;5032597;28;20041;-59
2022/01/09 06:03:54;;;;;;;65.70;36.50;;;51.30;2227.20;;;;;;5032713;28;20120;-58
2022/01/09 06:06:20;;;;;;;67.90;42.38;;;51.20;2227.20;;;;;;5033044;28;20030;-59
2022/01/09 06:08:46;;;;;;;89.10;48.70;;;51.30;2227.20;;;;;;5032802;28;20464;-59
2022/01/09 06:11:13;;;;;;;99.15;49.85;;;51.30;2227.20;;;;;;5032924;28;20480;-58
2022/01/09 06:13:39;;;;;;;112.32;57.33;;;51.30;2227.20;;;;;;5033043;28;20040;-59
2022/01/09 06:16:05;;;;;;;90.80;49.95;;;51.40;2227.20;;;;;;5032418;28;20045;-60
2022/01/09 06:18:31;;;;;;;78.82;43.17;;;51.30;2227.20;;;;;;5032905;28;20033;-59
2022/01/09 06:20:57;;;;;;;98.93;51.70;;;51.20;2227.20;;;;;;5032506;28;20033;-59
2022/01/09 06:23:23;;;;;;;86.00;52.60;;;51.20;2227.20;;;;;;5032680;28;20028;-61
2022/01/09 06:25:51;;;;;;;102.55;57.80;;;51.20;2227.20;;;;;;5032475;28;20472;-59
2022/01/09 06:28:18;;;;;;;97.05;55.10;;;51.30;2227.20;;;;;;5032399;28;20057;-60
2022/01/09 06:30:44;;;;;;;138.95;75.88;;;51.20;2227.20;;;;;;5032547;28;20040;-59
2022/01/09 06:33:11;;;;;;;92.88;57.65;;;51.20;2227.20;;;;;;5032462;28;20041;-58
2022/01/09 06:35:38;;;;;;;75.75;43.55;;;51.20;2227.20;;;;;;5031471;28;20411;-60
2022/01/09 06:38:04;;;;;;;157.63;89.80;;;26.50;2201.60;;;;;;5032407;28;20037;-59
2022/01/09 06:40:30;;;;;;;173.63;96.53;;;26.40;2201.60;;;;;;5032622;28;20029;-59
2022/01/09 06:42:56;;;;;;;126.10;72.80;;;26.30;2201.60;;;;;;5032097;28;20037;-59
2022/01/09 06:45:24;;;;;;;102.03;64.03;;;26.20;2201.60;;;;;;5032336;28;20375;-59
2022/01/09 06:47:51;;;;;;;101.95;63.13;;;26.20;2201.60;;;;;;5032326;28;20028;-60
2022/01/09 06:50:17;;;;;;;126.30;69.28;;;26.20;2201.60;;;;;;5032023;28;20087;-59
2022/01/09 06:52:43;;;;;;;117.47;65.90;;;26.40;2201.60;;;;;;5032206;28;20423;-60
2022/01/09 06:55:09;;;;;;;101.72;60.92;;;26.40;2201.60;;;;;;5031823;28;20039;-60
2022/01/09 06:57:35;;;;;;;141.70;85.70;;;26.30;2201.60;;;;;;5031697;28;20026;-59
2022/01/09 07:00:02;;;;;;;153.85;88.80;;;26.30;2201.60;;;;;;5031896;28;20067;-59
2022/01/09 07:02:28;;;;;;;140.35;79.07;;;26.30;2201.60;;;;;;5030581;28;20387;-59
2022/01/09 07:04:54;;;;;;;131.93;72.15;;;26.40;2201.60;;;;;;5032033;28;20104;-60
2022/01/09 07:07:19;;;;;;;85.82;49.88;;;26.40;2201.60;;;;;;5049011;28;20112;-59
2022/01/09 07:09:45;;;;;;;88.55;52.65;;;26.30;2201.60;;;;;;5051553;28;20033;-59
2022/01/09 07:12:11;;;;;;;95.43;52.28;;;26.50;2201.60;;;;;;5051934;28;20029;-59
2022/01/09 07:14:37;;;;;;;105.25;68.05;;;26.50;2201.60;;;;;;5051589;28;20052;-59
2022/01/09 07:17:03;;;;;;;91.22;59.20;;;26.50;2201.60;;;;;;5051419;28;20474;-60
2022/01/09 07:19:28;;;;;;;92.30;53.25;;;26.20;2201.60;;;;;;5051464;28;20029;-59
2022/01/09 07:21:55;;;;;;;89.55;54.35;;;26.20;2201.60;;;;;;5051284;28;20039;-59
2022/01/09 07:24:20;;;;;;;104.30;64.03;;;26.10;2201.60;;;;;;5051368;28;20029;-59
2022/01/09 07:26:46;;;;;;;117.82;67.30;;;26.20;2201.60;;;;;;5051237;28;20036;-60
2022/01/09 07:29:12;;;;;;;140.23;90.80;;;26.20;2201.60;;;;;;5051317;28;20021;-60
2022/01/09 07:31:38;;;;;;;189.13;110.43;;;26.20;2201.60;;;;;;5050893;28;20043;-59
2022/01/09 07:34:04;;;;;;;263.48;147.95;;;26.10;2201.60;;;;;;5045392;28;20037;-57
2022/01/09 07:36:29;;;;;;;210.77;124.78;;;26.00;2201.60;;;;;;5051200;28;20432;-58
2022/01/09 07:38:55;;;;;;;200.02;117.60;;;26.10;2201.60;;;;;;5051037;28;20147;-58
2022/01/09 07:41:21;;;;;;;127.40;77.13;;;26.20;2201.60;;;;;;5051194;28;20036;-59
2022/01/09 07:43:47;;;;;;;127.03;71.20;;;26.30;2201.60;;;;;;5051262;28;20021;-60
2022/01/09 07:46:13;;;;;;;121.43;68.82;;;26.40;2201.60;;;;;;5050907;28;20037;-60
2022/01/09 07:48:39;;;;;;;119.53;77.00;;;26.50;2201.60;;;;;;5050933;28;20029;-59
2022/01/09 07:51:05;;;;;;;201.95;111.38;;;51.30;2227.20;;;;;;5050751;28;20079;-59
2022/01/09 07:53:31;;;;;;;197.25;116.90;;;51.30;2227.20;;;;;;5050916;28;20051;-60
2022/01/09 07:55:57;;;;;;;133.77;80.53;;;51.30;2227.20;;;;;;5050639;28;20037;-60
2022/01/09 07:58:22;;;;;;;140.60;80.03;;;51.40;2227.20;;;;;;5051075;28;20024;-59
2022/01/09 08:00:48;;;;;;;111.50;61.85;;;26.50;2201.60;;;;;;5050666;28;20510;-61
2022/01/09 08:03:14;;;;;;;112.00;66.28;;;51.50;2227.20;;;;;;5050690;28;20690;-60
2022/01/09 08:05:40;;;;;;;107.43;66.97;;;51.30;2227.20;;;;;;5050664;28;20536;-60
2022/01/09 08:08:06;;;;;;;112.25;68.80;;;51.30;2227.20;;;;;;5050501;28;20040;-60
2022/01/09 08:10:32;;;;;;;116.68;73.65;;;51.50;2227.20;;;;;;5050565;28;20075;-59
2022/01/09 08:13:00;;;;;;;115.50;71.38;;;51.50;2227.20;;;;;;5050234;28;20029;-59
2022/01/09 08:15:29;;;;;;;194.00;117.72;;;51.30;2227.20;;;;;;5050178;28;20083;-59
2022/01/09 08:17:55;;;;;;;154.18;90.38;;;51.20;2227.20;;;;;;5049308;28;20037;-59
2022/01/09 08:20:21;;;;;;;147.07;82.97;;;26.50;2201.60;;;;;;5038809;28;20060;-59
2022/01/09 08:22:47;;;;;;;136.70;79.97;;;51.40;2227.20;;;;;;5050386;28;20033;-60
2022/01/09 08:25:15;;;;;;;125.07;74.68;;;51.70;2227.20;;;;;;5050430;28;20029;-59
2022/01/09 08:27:42;;;;;;;156.13;91.53;;;51.90;2227.20;;;;;;5050267;28;20025;-58
2022/01/09 08:30:08;;;;;;;138.88;85.38;;;76.90;2227.20;;;;;;5050141;28;20029;-59
2022/01/09 08:32:34;;;;;;;136.48;85.82;;;77.00;2227.20;;;;;;5050466;28;20361;-59
2022/01/09 08:35:01;;;;;;;171.30;109.15;;;77.40;2227.20;;;;;;5050215;28;20032;-58
2022/01/09 08:37:26;;;;;;;101.72;58.55;;;77.70;2227.20;;;;;;5049910;28;20068;-59
2022/01/09 08:39:52;;;;;;;139.88;78.82;;;77.40;2227.20;;;;;;5050047;28;20049;-60
2022/01/09 08:42:18;;;;;;;141.05;80.07;;;102.40;2227.20;;;;;;5050051;28;20395;-60
2022/01/09 08:44:44;;;;;;;140.40;85.68;;;102.80;2227.20;;;;;;5050435;28;20068;-59
2022/01/09 08:47:10;;;;;;;127.45;76.25;;;102.60;2227.20;;;;;;5050035;28;20029;-58
2022/01/09 08:49:36;;;;;;;122.63;79.97;;;102.80;2227.20;;;;;;5049970;28;20033;-59
2022/01/09 08:52:03;;;;;;;113.07;75.60;;;103.30;2227.20;;;;;;5045072;28;20399;-60
2022/01/09 08:54:30;;;;;;;103.63;68.60;;;128.40;2252.80;;;;;;5040496;28;20037;-59
2022/01/09 08:56:57;;;;;;;118.45;79.80;;;153.70;2252.80;;;;;;5037641;28;20506;-59
2022/01/09 08:59:23;;;;;;;122.05;86.28;;;153.70;2252.80;;;;;;5042933;28;20029;-59
2022/01/09 09:01:49;;;;;;;132.20;90.50;;;179.40;2252.80;;;;;;5038593;28;20430;-59
2022/01/09 09:04:15;;;;;;;118.68;78.75;;;204.80;2252.80;;;;;;5041350;28;20129;-60
2022/01/09 09:06:41;;;;;;;106.25;76.43;;;205.60;2252.80;;;;;;5039136;28;20029;-58
2022/01/09 09:09:08;;;;;;;116.97;81.07;;;231.10;2150.40;;;;;;5039365;28;20483;-60
2022/01/09 09:11:34;;;;;;;113.95;83.70;;;256.10;2048.00;;;;;;5037594;28;20030;-58
2022/01/09 09:14:00;;;;;;;109.53;81.13;;;231.00;2022.40;;;;;;5033907;28;20025;-60
2022/01/09 09:16:26;;;;;;;113.88;83.45;;;205.40;2150.40;;;;;;5046033;28;20040;-59
2022/01/09 09:18:52;;;;;;;131.27;92.65;;;205.40;2227.20;;;;;;5049814;28;20017;-59
2022/01/09 09:21:19;;;;;;;117.40;87.88;;;205.30;2201.60;;;;;;5049932;28;20029;-60
2022/01/09 09:23:45;;;;;;;125.63;93.75;;;204.90;2227.20;;;;;;5049766;28;20021;-59
2022/01/09 09:26:10;;;;;;;102.55;72.95;;;205.10;2252.80;;;;;;5053604;28;20052;-59
2022/01/09 09:28:37;;;;;;;100.85;70.15;;;205.50;2150.40;;;;;;5053713;28;20028;-60
2022/01/09 09:31:03;;;;;;;94.20;67.45;;;205.30;2150.40;;;;;;5053628;28;20123;-62
2022/01/09 09:33:29;;;;;;;78.80;55.35;;;204.80;2201.60;;;;;;5053885;28;20040;-68
2022/01/09 09:35:58;;;;;;;113.00;81.78;;;205.60;2124.80;;;;;;5053439;28;20037;-62
2022/01/09 09:38:24;;;;;;;91.13;66.93;;;205.20;2150.40;;;;;;5039691;28;20033;-60
2022/01/09 09:40:50;;;;;;;97.22;62.08;;;205.00;2176.00;;;;;;5033600;28;20080;-61
2022/01/09 09:43:17;;;;;;;86.63;58.10;;;180.10;2227.20;;;;;;5033554;28;20053;-61
2022/01/09 09:45:43;;;;;;;77.60;51.30;;;179.90;2227.20;;;;;;5033651;28;20387;-64
2022/01/09 09:48:09;;;;;;;86.57;54.20;;;179.60;2252.80;;;;;;5033628;28;20022;-62
2022/01/09 09:50:35;;;;;;;66.90;46.20;;;179.60;2252.80;;;;;;5033150;28;20036;-60
2022/01/09 09:53:02;;;;;;;74.13;50.00;;;179.40;2252.80;;;;;;5033517;28;20056;-60
2022/01/09 09:55:29;;;;;;;68.22;45.03;;;154.30;2252.80;;;;;;5032944;28;20044;-58
2022/01/09 09:57:55;;;;;;;51.40;33.92;;;154.00;2252.80;;;;;;5033277;28;20021;-59
2022/01/09 10:00:22;;;;;;;46.55;32.10;;;128.90;2252.80;;;;;;5032988;28;20044;-58
2022/01/09 10:02:50;;;;;;;58.40;35.75;;;128.70;2252.80;;;;;;5030976;28;20080;-59
2022/01/09 10:05:21;;;;;;;56.03;36.03;;;128.80;2252.80;;;;;;5031385;28;20610;-59
2022/01/09 10:07:47;;;;;;;76.07;46.75;;;128.40;2252.80;;;;;;5031942;28;20091;-66
2022/01/09 10:10:16;;;;;;;55.75;36.22;;;128.60;2252.80;;;;;;5033766;28;20022;-64
2022/01/09 10:12:44;;;;;;;63.90;41.33;;;128.30;2252.80;;;;;;5033681;28;20025;-60
2022/01/09 10:15:13;;;;;;;54.92;32.50;;;128.30;2252.80;;;;;;5032870;28;20033;-58
2022/01/09 10:17:50;;;;;;;51.28;30.35;;;128.30;2252.80;;;;;;5032510;28;20076;-62
2022/01/09 10:20:24;;;;;;;56.13;38.08;;;128.20;2252.80;;;;;;5032673;28;20030;-65
2022/01/09 10:22:53;;;;;;;43.28;29.15;;;128.10;2252.80;;;;;;5032831;28;20025;-63
2022/01/09 10:25:18;;;;;;;49.67;30.25;;;128.40;2252.80;;;;;;5032587;28;20056;-64
2022/01/09 10:27:45;;;;;;;56.00;36.45;;;128.20;2252.80;;;;;;5032601;28;20057;-59
2022/01/09 10:30:11;;;;;;;56.13;38.63;;;128.20;2252.80;;;;;;5032386;28;20052;-65
2022/01/09 10:32:37;;;;;;;57.55;38.63;;;103.30;2227.20;;;;;;5032324;28;20466;-66
2022/01/09 10:35:08;;;;;;;54.20;34.90;;;103.20;2227.20;;;;;;5032216;28;20025;-66
2022/01/09 10:37:35;;;;;;;55.00;35.28;;;128.10;2252.80;;;;;;5032281;28;20488;-66
2022/01/09 10:40:02;;;;;;;65.53;42.40;;;128.20;2252.80;;;;;;5032424;28;20024;-66
2022/01/09 10:42:28;;;;;;;60.53;36.53;;;128.30;2252.80;;;;;;5032105;28;20033;-58
2022/01/09 10:44:54;;;;;;;57.33;34.70;;;128.20;2252.80;;;;;;5032403;28;20013;-64
2022/01/09 10:47:20;;;;;;;49.67;30.85;;;128.50;2252.80;;;;;;5032273;28;20060;-63
2022/01/09 10:49:51;;;;;;;56.75;33.53;;;128.80;2252.80;;;;;;5032214;28;20021;-63
2022/01/09 10:52:26;;;;;;;49.70;30.55;;;128.60;2252.80;;;;;;5032063;28;20029;-62
2022/01/09 10:54:53;;;;;;;49.33;32.10;;;128.70;2252.80;;;;;;5032223;28;20021;-65
2022/01/09 10:57:29;;;;;;;50.28;34.90;;;128.90;2252.80;;;;;;5032170;28;20073;-62
2022/01/09 11:00:08;;;;;;;67.50;39.80;;;153.60;2252.80;;;;;;5031915;28;20022;-61
2022/01/09 11:02:34;;;;;;;57.00;36.78;;;128.50;2252.80;;;;;;5031830;28;20053;-66
2022/01/09 11:05:00;;;;;;;86.60;53.78;;;128.50;2252.80;;;;;;5031582;28;20555;-62
2022/01/09 11:07:26;;;;;;;63.78;39.58;;;128.50;2252.80;;;;;;5031636;28;20101;-61
2022/01/09 11:09:53;;;;;;;43.90;26.25;;;128.30;2252.80;;;;;;5031738;28;20079;-63
2022/01/09 11:12:21;;;;;;;43.42;25.45;;;103.30;2227.20;;;;;;5031786;28;20460;-63
2022/01/09 11:14:49;;;;;;;56.03;34.22;;;128.10;2252.80;;;;;;5031578;28;20083;-63
2022/01/09 11:17:17;;;;;;;53.40;30.88;;;128.10;2252.80;;;;;;5031568;28;20125;-61
2022/01/09 11:19:43;;;;;;;44.90;28.85;;;128.00;2252.80;;;;;;5031549;28;20079;-66
2022/01/09 11:22:12;;;;;;;73.63;40.70;;;103.20;2227.20;;;;;;5031489;28;20033;-62
2022/01/09 11:25:01;;;;;;;56.88;37.10;;;103.10;2227.20;;;;;;5031438;28;20021;-66
2022/01/09 11:27:49;;;;;;;52.40;33.58;;;103.20;2227.20;;;;;;5031168;28;20033;-65
2022/01/09 11:30:33;;;;;;;63.63;38.78;;;128.30;2252.80;;;;;;5031040;28;20029;-62
2022/01/09 11:32:59;;;;;;;59.47;35.15;;;128.40;2252.80;;;;;;5031133;28;20041;-67
2022/01/09 11:35:38;;;;;;;70.22;40.97;;;128.20;2252.80;;;;;;5031027;28;20079;-60
2022/01/09 11:38:21;;;;;;;54.50;35.97;;;128.10;2252.80;;;;;;5031198;28;20495;-65
2022/01/09 11:40:47;;;;;;;62.78;37.95;;;128.30;2252.80;;;;;;5031093;28;20132;-63
2022/01/09 11:43:16;;;;;;;49.70;31.65;;;128.10;2252.80;;;;;;5031055;28;20037;-66
2022/01/09 11:45:59;;;;;;;67.10;37.97;;;128.30;2252.80;;;;;;5031103;28;20109;-64
2022/01/09 11:48:58;;;;;;;65.30;38.10;;;128.20;2252.80;;;;;;5030425;28;20065;-66
2022/01/09 11:51:31;;;;;;;75.22;42.38;;;128.40;2252.80;;;;;;5030921;28;20026;-58
2022/01/09 11:54:17;;;;;;;79.95;45.83;;;128.30;2252.80;;;;;;5030845;28;20017;-58
2022/01/09 11:56:49;;;;;;;49.85;32.00;;;128.30;2252.80;;;;;;5030966;28;20044;-58
2022/01/09 11:59:29;;;;;;;62.97;37.25;;;128.30;2252.80;;;;;;5030693;28;20053;-59
2022/01/09 12:01:56;;;;;;;76.53;44.53;;;128.50;2252.80;;;;;;5030831;28;20041;-59
2022/01/09 12:04:31;;;;;;;62.92;37.13;;;128.50;2252.80;;;;;;5030548;28;20089;-58